sensor_id;sensor_type;location;lat;lon;timestamp;temperature;humidity
27633;DHT22;15046;50.930;13.334;2023-08-06T00:00:21;16.60;99.90
27633;DHT22;15046;50.930;13.334;2023-08-06T00:02:47;16.60;99.90
27633;DHT22;15046;50.930;13.334;2023-08-06T00:05:13;16.50;99.90
27633;DHT22;15046;50.930;13.334;2023-08-06T00:07:39;16.50;99.90
27633;DHT22;15046;50.930;13.334;2023-08-06T00:10:05;16.60;99.90
27633;DHT22;15046;50.930;13.334;2023-08-06T00:12:31;16.50;99.90
27633;DHT22;15046;50.930;13.334;2023-08-06T00:14:56;16.40;99.90
27633;DHT22;15046;50.930;13.334;2023-08-06T00:17:22;16.40;99.90
27633;DHT22;15046;50.930;13.334;2023-08-06T00:19:48;16.30;99.90
27633;DHT22;15046;50.930;13.334;2023-08-06T00:22:13;16.20;99.90
27633;DHT22;15046;50.930;13.334;2023-08-06T00:24:39;16.10;99.90
27633;DHT22;15046;50.930;13.334;2023-08-06T00:27:05;16.00;99.90
27633;DHT22;15046;50.930;13.334;2023-08-06T00:29:31;16.00;99.90
27633;DHT22;15046;50.930;13.334;2023-08-06T00:31:57;15.90;99.90
27633;DHT22;15046;50.930;13.334;2023-08-06T00:34:22;15.90;99.90
27633;DHT22;15046;50.930;13.334;2023-08-06T00:36:48;15.90;99.90
27633;DHT22;15046;50.930;13.334;2023-08-06T00:39:14;15.90;99.90
27633;DHT22;15046;50.930;13.334;2023-08-06T00:41:39;15.80;99.90
27633;DHT22;15046;50.930;13.334;2023-08-06T00:44:05;15.80;99.90
27633;DHT22;15046;50.930;13.334;2023-08-06T00:46:32;15.70;99.90
27633;DHT22;15046;50.930;13.334;2023-08-06T00:48:58;15.70;99.90
27633;DHT22;15046;50.930;13.334;2023-08-06T00:51:25;15.70;99.90
27633;DHT22;15046;50.930;13.334;2023-08-06T00:53:52;15.70;99.90
27633;DHT22;15046;50.930;13.334;2023-08-06T00:56:19;15.70;99.90
27633;DHT22;15046;50.930;13.334;2023-08-06T00:58:45;15.60;99.90
27633;DHT22;15046;50.930;13.334;2023-08-06T01:01:11;15.60;99.90
27633;DHT22;15046;50.930;13.334;2023-08-06T01:03:37;15.60;99.90
27633;DHT22;15046;50.930;13.334;2023-08-06T01:06:03;15.60;99.90
27633;DHT22;15046;50.930;13.334;2023-08-06T01:09:01;15.60;99.90
27633;DHT22;15046;50.930;13.334;2023-08-06T01:11:44;15.50;99.90
27633;DHT22;15046;50.930;13.334;2023-08-06T01:14:40;15.50;99.90
27633;DHT22;15046;50.930;13.334;2023-08-06T01:17:10;15.50;99.90
27633;DHT22;15046;50.930;13.334;2023-08-06T01:19:36;15.50;99.90
27633;DHT22;15046;50.930;13.334;2023-08-06T01:22:02;15.50;99.90
27633;DHT22;15046;50.930;13.334;2023-08-06T01:24:28;15.50;99.90
27633;DHT22;15046;50.930;13.334;2023-08-06T01:27:11;15.50;99.90
27633;DHT22;15046;50.930;13.334;2023-08-06T01:29:46;15.50;99.90
27633;DHT22;15046;50.930;13.334;2023-08-06T01:32:14;15.50;99.90
27633;DHT22;15046;50.930;13.334;2023-08-06T01:34:43;15.50;99.90
27633;DHT22;15046;50.930;13.334;2023-08-06T01:37:09;15.50;99.90
27633;DHT22;15046;50.930;13.334;2023-08-06T01:39:36;15.50;99.90
27633;DHT22;15046;50.930;13.334;2023-08-06T01:42:02;15.50;99.90
27633;DHT22;15046;50.930;13.334;2023-08-06T01:44:28;15.50;99.90
27633;DHT22;15046;50.930;13.334;2023-08-06T01:46:54;15.50;99.90
27633;DHT22;15046;50.930;13.334;2023-08-06T01:49:19;15.50;99.90
27633;DHT22;15046;50.930;13.334;2023-08-06T01:51:45;15.50;99.90
27633;DHT22;15046;50.930;13.334;2023-08-06T01:54:11;15.50;99.90
27633;DHT22;15046;50.930;13.334;2023-08-06T01:56:36;15.50;99.90
27633;DHT22;15046;50.930;13.334;2023-08-06T01:59:02;15.50;99.90
27633;DHT22;15046;50.930;13.334;2023-08-06T02:01:28;15.50;99.90
27633;DHT22;15046;50.930;13.334;2023-08-06T02:03:54;15.50;99.90
27633;DHT22;15046;50.930;13.334;2023-08-06T02:06:20;15.50;99.90
27633;DHT22;15046;50.930;13.334;2023-08-06T02:08:46;15.50;99.90
27633;DHT22;15046;50.930;13.334;2023-08-06T02:11:11;15.50;99.90
27633;DHT22;15046;50.930;13.334;2023-08-06T02:13:37;15.50;99.90
27633;DHT22;15046;50.930;13.334;2023-08-06T02:16:03;15.40;99.90
27633;DHT22;15046;50.930;13.334;2023-08-06T02:18:29;15.40;99.90
27633;DHT22;15046;50.930;13.334;2023-08-06T02:20:59;15.40;99.90
27633;DHT22;15046;50.930;13.334;2023-08-06T02:23:25;15.40;99.90
27633;DHT22;15046;50.930;13.334;2023-08-06T02:26:01;15.40;99.90
27633;DHT22;15046;50.930;13.334;2023-08-06T02:28:28;15.40;99.90
27633;DHT22;15046;50.930;13.334;2023-08-06T02:30:54;15.40;99.90
27633;DHT22;15046;50.930;13.334;2023-08-06T02:33:20;15.40;99.90
27633;DHT22;15046;50.930;13.334;2023-08-06T02:35:46;15.40;99.90
27633;DHT22;15046;50.930;13.334;2023-08-06T02:38:12;15.40;99.90
27633;DHT22;15046;50.930;13.334;2023-08-06T02:40:43;15.30;99.90
27633;DHT22;15046;50.930;13.334;2023-08-06T02:43:10;15.30;99.90
27633;DHT22;15046;50.930;13.334;2023-08-06T02:45:35;15.30;99.90
27633;DHT22;15046;50.930;13.334;2023-08-06T02:48:01;15.30;99.90
27633;DHT22;15046;50.930;13.334;2023-08-06T02:50:28;15.30;99.90
27633;DHT22;15046;50.930;13.334;2023-08-06T02:52:54;15.30;99.90
27633;DHT22;15046;50.930;13.334;2023-08-06T02:55:20;15.30;99.90
27633;DHT22;15046;50.930;13.334;2023-08-06T02:57:45;15.20;99.90
27633;DHT22;15046;50.930;13.334;2023-08-06T03:00:11;15.20;99.90
27633;DHT22;15046;50.930;13.334;2023-08-06T03:02:37;15.20;99.90
27633;DHT22;15046;50.930;13.334;2023-08-06T03:05:04;15.20;99.90
27633;DHT22;15046;50.930;13.334;2023-08-06T03:07:31;15.20;99.90
27633;DHT22;15046;50.930;13.334;2023-08-06T03:09:59;15.20;99.90
27633;DHT22;15046;50.930;13.334;2023-08-06T03:12:27;15.10;99.90
27633;DHT22;15046;50.930;13.334;2023-08-06T03:14:52;15.10;99.90
27633;DHT22;15046;50.930;13.334;2023-08-06T03:17:18;15.10;99.90
27633;DHT22;15046;50.930;13.334;2023-08-06T03:19:44;15.10;99.90
27633;DHT22;15046;50.930;13.334;2023-08-06T03:22:10;15.00;99.90
27633;DHT22;15046;50.930;13.334;2023-08-06T03:24:36;15.10;99.90
27633;DHT22;15046;50.930;13.334;2023-08-06T03:27:02;15.00;99.90
27633;DHT22;15046;50.930;13.334;2023-08-06T03:29:28;15.10;99.90
27633;DHT22;15046;50.930;13.334;2023-08-06T03:31:54;15.10;99.90
27633;DHT22;15046;50.930;13.334;2023-08-06T03:34:19;15.10;99.90
27633;DHT22;15046;50.930;13.334;2023-08-06T03:36:45;15.10;99.90
27633;DHT22;15046;50.930;13.334;2023-08-06T03:39:11;15.00;99.90
27633;DHT22;15046;50.930;13.334;2023-08-06T03:41:37;15.10;99.90
27633;DHT22;15046;50.930;13.334;2023-08-06T03:44:03;15.00;99.90
27633;DHT22;15046;50.930;13.334;2023-08-06T03:46:29;15.00;99.90
27633;DHT22;15046;50.930;13.334;2023-08-06T03:48:59;15.00;99.90
27633;DHT22;15046;50.930;13.334;2023-08-06T03:51:25;15.00;99.90
27633;DHT22;15046;50.930;13.334;2023-08-06T03:53:51;15.00;99.90
27633;DHT22;15046;50.930;13.334;2023-08-06T03:56:17;15.00;99.90
27633;DHT22;15046;50.930;13.334;2023-08-06T03:58:43;15.00;99.90
27633;DHT22;15046;50.930;13.334;2023-08-06T04:01:08;15.00;99.90
27633;DHT22;15046;50.930;13.334;2023-08-06T04:03:34;15.00;99.90
27633;DHT22;15046;50.930;13.334;2023-08-06T04:06:02;15.00;99.90
27633;DHT22;15046;50.930;13.334;2023-08-06T04:08:28;15.00;99.90
27633;DHT22;15046;50.930;13.334;2023-08-06T04:10:54;15.00;99.90
27633;DHT22;15046;50.930;13.334;2023-08-06T04:13:20;15.00;99.90
27633;DHT22;15046;50.930;13.334;2023-08-06T04:15:46;14.90;99.90
27633;DHT22;15046;50.930;13.334;2023-08-06T04:18:12;14.90;99.90
27633;DHT22;15046;50.930;13.334;2023-08-06T04:20:45;14.90;99.90
27633;DHT22;15046;50.930;13.334;2023-08-06T04:23:11;14.90;99.90
27633;DHT22;15046;50.930;13.334;2023-08-06T04:25:38;14.90;99.90
27633;DHT22;15046;50.930;13.334;2023-08-06T04:28:04;14.90;99.90
27633;DHT22;15046;50.930;13.334;2023-08-06T04:30:29;14.90;99.90
27633;DHT22;15046;50.930;13.334;2023-08-06T04:32:56;14.90;99.90
27633;DHT22;15046;50.930;13.334;2023-08-06T04:35:23;14.90;99.90
27633;DHT22;15046;50.930;13.334;2023-08-06T04:37:49;15.00;99.90
27633;DHT22;15046;50.930;13.334;2023-08-06T04:40:15;15.00;99.90
27633;DHT22;15046;50.930;13.334;2023-08-06T04:42:41;15.00;99.90
27633;DHT22;15046;50.930;13.334;2023-08-06T04:45:07;15.00;99.90
27633;DHT22;15046;50.930;13.334;2023-08-06T04:47:33;15.00;99.90
27633;DHT22;15046;50.930;13.334;2023-08-06T04:49:59;15.00;99.90
27633;DHT22;15046;50.930;13.334;2023-08-06T04:52:25;15.00;99.90
27633;DHT22;15046;50.930;13.334;2023-08-06T04:54:54;15.10;99.90
27633;DHT22;15046;50.930;13.334;2023-08-06T04:57:20;15.10;99.90
27633;DHT22;15046;50.930;13.334;2023-08-06T04:59:46;15.10;99.90
27633;DHT22;15046;50.930;13.334;2023-08-06T05:02:12;15.00;99.90
27633;DHT22;15046;50.930;13.334;2023-08-06T05:04:38;15.00;99.90
27633;DHT22;15046;50.930;13.334;2023-08-06T05:07:05;14.90;99.90
27633;DHT22;15046;50.930;13.334;2023-08-06T05:09:31;14.90;99.90
27633;DHT22;15046;50.930;13.334;2023-08-06T05:11:56;14.80;99.90
27633;DHT22;15046;50.930;13.334;2023-08-06T05:14:22;14.70;99.90
27633;DHT22;15046;50.930;13.334;2023-08-06T05:16:48;14.70;99.90
27633;DHT22;15046;50.930;13.334;2023-08-06T05:19:14;14.70;99.90
27633;DHT22;15046;50.930;13.334;2023-08-06T05:21:40;14.70;99.90
27633;DHT22;15046;50.930;13.334;2023-08-06T05:24:05;14.70;99.90
27633;DHT22;15046;50.930;13.334;2023-08-06T05:26:31;14.70;99.90
27633;DHT22;15046;50.930;13.334;2023-08-06T05:28:57;14.80;99.90
27633;DHT22;15046;50.930;13.334;2023-08-06T05:31:23;14.80;99.90
27633;DHT22;15046;50.930;13.334;2023-08-06T05:33:48;14.80;99.90
27633;DHT22;15046;50.930;13.334;2023-08-06T05:36:14;14.80;99.90
27633;DHT22;15046;50.930;13.334;2023-08-06T05:38:40;14.80;99.90
27633;DHT22;15046;50.930;13.334;2023-08-06T05:41:06;14.80;99.90
27633;DHT22;15046;50.930;13.334;2023-08-06T05:43:32;14.80;99.90
27633;DHT22;15046;50.930;13.334;2023-08-06T05:45:58;14.80;99.90
27633;DHT22;15046;50.930;13.334;2023-08-06T05:48:24;14.80;99.90
27633;DHT22;15046;50.930;13.334;2023-08-06T05:50:51;14.80;99.90
27633;DHT22;15046;50.930;13.334;2023-08-06T05:53:17;14.80;99.90
27633;DHT22;15046;50.930;13.334;2023-08-06T05:55:43;14.80;99.90
27633;DHT22;15046;50.930;13.334;2023-08-06T05:58:10;14.80;99.90
27633;DHT22;15046;50.930;13.334;2023-08-06T06:00:36;14.80;99.90
27633;DHT22;15046;50.930;13.334;2023-08-06T06:03:02;14.80;99.90
27633;DHT22;15046;50.930;13.334;2023-08-06T06:05:28;14.80;99.90
27633;DHT22;15046;50.930;13.334;2023-08-06T06:07:54;14.90;99.90
27633;DHT22;15046;50.930;13.334;2023-08-06T06:10:20;14.90;99.90
27633;DHT22;15046;50.930;13.334;2023-08-06T06:12:46;14.90;99.90
27633;DHT22;15046;50.930;13.334;2023-08-06T06:15:12;14.90;99.90
27633;DHT22;15046;50.930;13.334;2023-08-06T06:17:38;14.90;99.90
27633;DHT22;15046;50.930;13.334;2023-08-06T06:20:05;15.00;99.90
27633;DHT22;15046;50.930;13.334;2023-08-06T06:22:31;15.00;99.90
27633;DHT22;15046;50.930;13.334;2023-08-06T06:24:57;15.00;99.90
27633;DHT22;15046;50.930;13.334;2023-08-06T06:27:22;15.00;99.90
27633;DHT22;15046;50.930;13.334;2023-08-06T06:29:48;15.00;99.90
27633;DHT22;15046;50.930;13.334;2023-08-06T06:32:14;15.00;99.90
27633;DHT22;15046;50.930;13.334;2023-08-06T06:34:40;15.00;99.90
27633;DHT22;15046;50.930;13.334;2023-08-06T06:37:06;14.90;99.90
27633;DHT22;15046;50.930;13.334;2023-08-06T06:39:31;14.90;99.90
27633;DHT22;15046;50.930;13.334;2023-08-06T06:41:57;14.90;99.90
27633;DHT22;15046;50.930;13.334;2023-08-06T06:44:23;14.90;99.90
27633;DHT22;15046;50.930;13.334;2023-08-06T06:46:49;14.80;99.90
27633;DHT22;15046;50.930;13.334;2023-08-06T06:49:15;14.70;99.90
27633;DHT22;15046;50.930;13.334;2023-08-06T06:51:40;14.70;99.90
27633;DHT22;15046;50.930;13.334;2023-08-06T06:54:06;14.60;99.90
27633;DHT22;15046;50.930;13.334;2023-08-06T06:56:32;14.60;99.90
27633;DHT22;15046;50.930;13.334;2023-08-06T06:58:58;14.60;99.90
27633;DHT22;15046;50.930;13.334;2023-08-06T07:01:24;14.60;99.90
27633;DHT22;15046;50.930;13.334;2023-08-06T07:03:50;14.60;99.90
27633;DHT22;15046;50.930;13.334;2023-08-06T07:06:15;14.60;99.90
27633;DHT22;15046;50.930;13.334;2023-08-06T07:08:44;14.60;99.90
27633;DHT22;15046;50.930;13.334;2023-08-06T07:11:10;14.60;99.90
27633;DHT22;15046;50.930;13.334;2023-08-06T07:13:36;14.60;99.90
27633;DHT22;15046;50.930;13.334;2023-08-06T07:16:02;14.60;99.90
27633;DHT22;15046;50.930;13.334;2023-08-06T07:18:28;14.60;99.90
27633;DHT22;15046;50.930;13.334;2023-08-06T07:20:54;14.60;99.90
27633;DHT22;15046;50.930;13.334;2023-08-06T07:23:22;14.60;99.90
27633;DHT22;15046;50.930;13.334;2023-08-06T07:25:49;14.60;99.90
27633;DHT22;15046;50.930;13.334;2023-08-06T07:28:15;14.70;99.90
27633;DHT22;15046;50.930;13.334;2023-08-06T07:30:43;14.70;99.90
27633;DHT22;15046;50.930;13.334;2023-08-06T07:33:09;14.70;99.90
27633;DHT22;15046;50.930;13.334;2023-08-06T07:35:36;14.80;99.90
27633;DHT22;15046;50.930;13.334;2023-08-06T07:38:02;14.80;99.90
27633;DHT22;15046;50.930;13.334;2023-08-06T07:40:28;14.80;99.90
27633;DHT22;15046;50.930;13.334;2023-08-06T07:42:54;14.80;99.90
27633;DHT22;15046;50.930;13.334;2023-08-06T07:45:20;14.70;99.90
27633;DHT22;15046;50.930;13.334;2023-08-06T07:47:46;14.70;99.90
27633;DHT22;15046;50.930;13.334;2023-08-06T07:50:13;14.70;99.90
27633;DHT22;15046;50.930;13.334;2023-08-06T07:52:39;14.70;99.90
27633;DHT22;15046;50.930;13.334;2023-08-06T07:55:05;14.60;99.90
27633;DHT22;15046;50.930;13.334;2023-08-06T07:57:31;14.60;99.90
27633;DHT22;15046;50.930;13.334;2023-08-06T07:59:59;14.60;99.90
27633;DHT22;15046;50.930;13.334;2023-08-06T08:02:25;14.60;99.90
27633;DHT22;15046;50.930;13.334;2023-08-06T08:04:51;14.60;99.90
27633;DHT22;15046;50.930;13.334;2023-08-06T08:07:17;14.60;99.90
27633;DHT22;15046;50.930;13.334;2023-08-06T08:09:43;14.50;99.90
27633;DHT22;15046;50.930;13.334;2023-08-06T08:12:09;14.50;99.90
27633;DHT22;15046;50.930;13.334;2023-08-06T08:14:35;14.60;99.90
27633;DHT22;15046;50.930;13.334;2023-08-06T08:17:03;14.70;99.90
27633;DHT22;15046;50.930;13.334;2023-08-06T08:19:29;14.80;99.90
27633;DHT22;15046;50.930;13.334;2023-08-06T08:21:55;14.90;99.90
27633;DHT22;15046;50.930;13.334;2023-08-06T08:24:21;15.00;99.90
27633;DHT22;15046;50.930;13.334;2023-08-06T08:26:52;15.00;99.90
27633;DHT22;15046;50.930;13.334;2023-08-06T08:29:19;15.20;99.90
27633;DHT22;15046;50.930;13.334;2023-08-06T08:31:46;15.30;99.90
27633;DHT22;15046;50.930;13.334;2023-08-06T08:34:15;15.40;99.90
27633;DHT22;15046;50.930;13.334;2023-08-06T08:36:41;15.40;99.90
27633;DHT22;15046;50.930;13.334;2023-08-06T08:39:07;15.50;99.90
27633;DHT22;15046;50.930;13.334;2023-08-06T08:41:34;15.50;99.90
27633;DHT22;15046;50.930;13.334;2023-08-06T08:44:00;15.60;99.90
27633;DHT22;15046;50.930;13.334;2023-08-06T08:46:29;15.60;99.90
27633;DHT22;15046;50.930;13.334;2023-08-06T08:48:57;15.60;99.90
27633;DHT22;15046;50.930;13.334;2023-08-06T08:51:24;15.50;99.90
27633;DHT22;15046;50.930;13.334;2023-08-06T08:53:53;15.50;99.90
27633;DHT22;15046;50.930;13.334;2023-08-06T08:56:23;15.50;99.90
27633;DHT22;15046;50.930;13.334;2023-08-06T08:58:49;15.50;99.90
27633;DHT22;15046;50.930;13.334;2023-08-06T09:01:16;15.40;99.90
27633;DHT22;15046;50.930;13.334;2023-08-06T09:03:43;15.40;99.90
27633;DHT22;15046;50.930;13.334;2023-08-06T09:06:11;15.30;99.90
27633;DHT22;15046;50.930;13.334;2023-08-06T09:08:43;15.30;99.90
27633;DHT22;15046;50.930;13.334;2023-08-06T09:11:12;15.30;99.90
27633;DHT22;15046;50.930;13.334;2023-08-06T09:13:38;15.20;99.90
27633;DHT22;15046;50.930;13.334;2023-08-06T09:16:04;15.20;99.90
27633;DHT22;15046;50.930;13.334;2023-08-06T09:18:31;15.20;99.90
27633;DHT22;15046;50.930;13.334;2023-08-06T09:20:57;15.20;99.90
27633;DHT22;15046;50.930;13.334;2023-08-06T09:23:32;15.20;99.90
27633;DHT22;15046;50.930;13.334;2023-08-06T09:25:59;15.20;99.90
27633;DHT22;15046;50.930;13.334;2023-08-06T09:28:37;15.20;99.90
27633;DHT22;15046;50.930;13.334;2023-08-06T09:31:08;15.20;99.90
27633;DHT22;15046;50.930;13.334;2023-08-06T09:33:38;15.30;99.90
27633;DHT22;15046;50.930;13.334;2023-08-06T09:36:08;15.30;99.90
27633;DHT22;15046;50.930;13.334;2023-08-06T09:38:38;15.20;99.90
27633;DHT22;15046;50.930;13.334;2023-08-06T09:41:07;15.20;99.90
27633;DHT22;15046;50.930;13.334;2023-08-06T09:43:43;15.30;99.90
27633;DHT22;15046;50.930;13.334;2023-08-06T09:46:13;15.30;99.90
27633;DHT22;15046;50.930;13.334;2023-08-06T09:48:40;15.30;99.90
27633;DHT22;15046;50.930;13.334;2023-08-06T09:51:08;15.40;99.90
27633;DHT22;15046;50.930;13.334;2023-08-06T09:53:34;15.40;99.90
27633;DHT22;15046;50.930;13.334;2023-08-06T09:56:01;15.50;99.90
27633;DHT22;15046;50.930;13.334;2023-08-06T09:58:29;15.50;99.90
27633;DHT22;15046;50.930;13.334;2023-08-06T10:00:56;15.60;99.90
27633;DHT22;15046;50.930;13.334;2023-08-06T10:03:22;15.70;99.90
27633;DHT22;15046;50.930;13.334;2023-08-06T10:05:49;15.70;99.90
27633;DHT22;15046;50.930;13.334;2023-08-06T10:08:15;15.70;99.90
27633;DHT22;15046;50.930;13.334;2023-08-06T10:10:41;15.70;99.90
27633;DHT22;15046;50.930;13.334;2023-08-06T10:13:07;15.70;99.90
27633;DHT22;15046;50.930;13.334;2023-08-06T10:15:34;15.80;99.90
27633;DHT22;15046;50.930;13.334;2023-08-06T10:18:02;15.80;99.90
27633;DHT22;15046;50.930;13.334;2023-08-06T10:20:33;15.80;99.90
27633;DHT22;15046;50.930;13.334;2023-08-06T10:23:04;15.80;99.90
27633;DHT22;15046;50.930;13.334;2023-08-06T10:25:34;15.90;99.90
27633;DHT22;15046;50.930;13.334;2023-08-06T10:28:06;16.00;99.90
27633;DHT22;15046;50.930;13.334;2023-08-06T10:30:33;16.10;99.90
27633;DHT22;15046;50.930;13.334;2023-08-06T10:33:02;16.30;99.90
27633;DHT22;15046;50.930;13.334;2023-08-06T10:38:18;16.50;99.90
27633;DHT22;15046;50.930;13.334;2023-08-06T10:41:01;16.70;99.90
27633;DHT22;15046;50.930;13.334;2023-08-06T10:45:55;16.70;99.90
27633;DHT22;15046;50.930;13.334;2023-08-06T10:48:34;16.70;99.90
27633;DHT22;15046;50.930;13.334;2023-08-06T10:51:02;16.80;99.90
27633;DHT22;15046;50.930;13.334;2023-08-06T10:53:28;16.80;99.90
27633;DHT22;15046;50.930;13.334;2023-08-06T10:55:54;16.90;99.90
27633;DHT22;15046;50.930;13.334;2023-08-06T10:58:21;17.00;99.90
27633;DHT22;15046;50.930;13.334;2023-08-06T11:00:47;17.10;99.90
27633;DHT22;15046;50.930;13.334;2023-08-06T11:03:13;17.30;99.90
27633;DHT22;15046;50.930;13.334;2023-08-06T11:05:40;17.50;99.90
27633;DHT22;15046;50.930;13.334;2023-08-06T11:08:05;17.70;99.90
27633;DHT22;15046;50.930;13.334;2023-08-06T11:10:33;18.00;99.90
27633;DHT22;15046;50.930;13.334;2023-08-06T11:13:03;18.10;99.90
27633;DHT22;15046;50.930;13.334;2023-08-06T11:15:30;18.20;99.90
27633;DHT22;15046;50.930;13.334;2023-08-06T11:17:57;18.30;99.90
27633;DHT22;15046;50.930;13.334;2023-08-06T11:20:24;18.50;99.90
27633;DHT22;15046;50.930;13.334;2023-08-06T11:22:50;18.70;99.90
27633;DHT22;15046;50.930;13.334;2023-08-06T11:25:19;19.00;99.90
27633;DHT22;15046;50.930;13.334;2023-08-06T11:27:45;19.30;99.90
27633;DHT22;15046;50.930;13.334;2023-08-06T11:30:11;19.40;99.90
27633;DHT22;15046;50.930;13.334;2023-08-06T11:32:47;19.40;99.90
27633;DHT22;15046;50.930;13.334;2023-08-06T11:35:14;19.60;99.90
27633;DHT22;15046;50.930;13.334;2023-08-06T11:37:44;19.90;99.90
27633;DHT22;15046;50.930;13.334;2023-08-06T11:40:11;20.20;99.90
27633;DHT22;15046;50.930;13.334;2023-08-06T11:42:38;20.30;99.90
27633;DHT22;15046;50.930;13.334;2023-08-06T11:45:04;20.20;99.90
27633;DHT22;15046;50.930;13.334;2023-08-06T11:47:31;20.10;99.90
27633;DHT22;15046;50.930;13.334;2023-08-06T11:49:57;20.10;99.90
27633;DHT22;15046;50.930;13.334;2023-08-06T11:52:25;20.20;99.90
27633;DHT22;15046;50.930;13.334;2023-08-06T11:55:05;20.30;99.90
27633;DHT22;15046;50.930;13.334;2023-08-06T11:57:39;20.40;99.90
27633;DHT22;15046;50.930;13.334;2023-08-06T12:00:10;20.40;99.90
27633;DHT22;15046;50.930;13.334;2023-08-06T12:02:42;20.40;99.90
27633;DHT22;15046;50.930;13.334;2023-08-06T12:05:12;20.60;99.90
27633;DHT22;15046;50.930;13.334;2023-08-06T12:07:44;20.50;99.90
27633;DHT22;15046;50.930;13.334;2023-08-06T12:10:11;20.30;99.90
27633;DHT22;15046;50.930;13.334;2023-08-06T12:12:37;19.90;99.90
27633;DHT22;15046;50.930;13.334;2023-08-06T12:15:05;19.80;99.90
27633;DHT22;15046;50.930;13.334;2023-08-06T12:17:32;19.70;99.90
27633;DHT22;15046;50.930;13.334;2023-08-06T12:20:01;19.60;99.90
27633;DHT22;15046;50.930;13.334;2023-08-06T12:22:27;19.60;99.90
27633;DHT22;15046;50.930;13.334;2023-08-06T12:24:52;19.50;99.90
27633;DHT22;15046;50.930;13.334;2023-08-06T12:27:18;19.40;99.90
27633;DHT22;15046;50.930;13.334;2023-08-06T12:29:47;19.40;99.90
27633;DHT22;15046;50.930;13.334;2023-08-06T12:32:14;19.50;99.90
27633;DHT22;15046;50.930;13.334;2023-08-06T12:34:41;19.50;99.90
27633;DHT22;15046;50.930;13.334;2023-08-06T12:37:08;19.40;99.90
27633;DHT22;15046;50.930;13.334;2023-08-06T12:39:35;19.30;99.90
27633;DHT22;15046;50.930;13.334;2023-08-06T12:42:02;19.10;99.90
27633;DHT22;15046;50.930;13.334;2023-08-06T12:44:28;19.00;99.90
27633;DHT22;15046;50.930;13.334;2023-08-06T12:46:55;18.90;99.90
27633;DHT22;15046;50.930;13.334;2023-08-06T12:49:21;18.80;99.90
27633;DHT22;15046;50.930;13.334;2023-08-06T12:51:48;18.70;99.90
27633;DHT22;15046;50.930;13.334;2023-08-06T12:54:18;18.70;99.90
27633;DHT22;15046;50.930;13.334;2023-08-06T12:56:45;18.70;99.90
27633;DHT22;15046;50.930;13.334;2023-08-06T12:59:13;18.60;99.90
27633;DHT22;15046;50.930;13.334;2023-08-06T13:01:39;18.60;99.90
27633;DHT22;15046;50.930;13.334;2023-08-06T13:04:05;18.70;99.90
27633;DHT22;15046;50.930;13.334;2023-08-06T13:06:31;18.70;99.90
27633;DHT22;15046;50.930;13.334;2023-08-06T13:09:03;18.90;99.90
27633;DHT22;15046;50.930;13.334;2023-08-06T13:11:30;19.20;99.90
27633;DHT22;15046;50.930;13.334;2023-08-06T13:14:05;19.50;99.90
27633;DHT22;15046;50.930;13.334;2023-08-06T13:16:32;19.90;99.90
27633;DHT22;15046;50.930;13.334;2023-08-06T13:18:58;20.10;99.90
27633;DHT22;15046;50.930;13.334;2023-08-06T13:21:24;20.30;99.90
27633;DHT22;15046;50.930;13.334;2023-08-06T13:23:50;20.40;99.90
27633;DHT22;15046;50.930;13.334;2023-08-06T13:26:17;20.50;99.90
27633;DHT22;15046;50.930;13.334;2023-08-06T13:28:43;20.40;99.90
27633;DHT22;15046;50.930;13.334;2023-08-06T13:31:10;20.40;99.90
27633;DHT22;15046;50.930;13.334;2023-08-06T13:33:36;20.30;99.90
27633;DHT22;15046;50.930;13.334;2023-08-06T13:36:02;20.40;99.90
27633;DHT22;15046;50.930;13.334;2023-08-06T13:38:27;20.40;99.90
27633;DHT22;15046;50.930;13.334;2023-08-06T13:40:53;20.40;99.90
27633;DHT22;15046;50.930;13.334;2023-08-06T13:43:20;20.30;99.90
27633;DHT22;15046;50.930;13.334;2023-08-06T13:45:46;20.20;99.90
27633;DHT22;15046;50.930;13.334;2023-08-06T13:48:11;20.20;99.90
27633;DHT22;15046;50.930;13.334;2023-08-06T13:50:37;20.30;99.90
27633;DHT22;15046;50.930;13.334;2023-08-06T13:53:03;20.40;99.90
27633;DHT22;15046;50.930;13.334;2023-08-06T13:55:30;20.60;99.90
27633;DHT22;15046;50.930;13.334;2023-08-06T13:57:56;20.90;99.90
27633;DHT22;15046;50.930;13.334;2023-08-06T14:00:21;21.20;99.90
27633;DHT22;15046;50.930;13.334;2023-08-06T14:02:47;21.40;99.90
27633;DHT22;15046;50.930;13.334;2023-08-06T14:05:13;21.70;99.90
27633;DHT22;15046;50.930;13.334;2023-08-06T14:07:39;22.10;99.90
27633;DHT22;15046;50.930;13.334;2023-08-06T14:10:06;22.40;99.90
27633;DHT22;15046;50.930;13.334;2023-08-06T14:12:32;22.60;99.90
27633;DHT22;15046;50.930;13.334;2023-08-06T14:14:58;22.80;99.90
27633;DHT22;15046;50.930;13.334;2023-08-06T14:17:24;23.00;99.90
27633;DHT22;15046;50.930;13.334;2023-08-06T14:19:50;23.00;99.90
27633;DHT22;15046;50.930;13.334;2023-08-06T14:22:16;22.90;99.90
27633;DHT22;15046;50.930;13.334;2023-08-06T14:24:42;22.80;99.90
27633;DHT22;15046;50.930;13.334;2023-08-06T14:27:08;22.70;99.90
27633;DHT22;15046;50.930;13.334;2023-08-06T14:29:34;22.50;99.90
27633;DHT22;15046;50.930;13.334;2023-08-06T14:32:00;22.20;99.90
27633;DHT22;15046;50.930;13.334;2023-08-06T14:34:26;22.00;99.90
27633;DHT22;15046;50.930;13.334;2023-08-06T14:36:53;21.80;99.90
27633;DHT22;15046;50.930;13.334;2023-08-06T14:39:19;21.40;99.90
27633;DHT22;15046;50.930;13.334;2023-08-06T14:41:45;21.30;99.90
27633;DHT22;15046;50.930;13.334;2023-08-06T14:44:10;21.20;99.90
27633;DHT22;15046;50.930;13.334;2023-08-06T14:46:37;21.20;99.90
27633;DHT22;15046;50.930;13.334;2023-08-06T14:49:03;21.20;99.90
27633;DHT22;15046;50.930;13.334;2023-08-06T14:51:29;21.30;99.90
27633;DHT22;15046;50.930;13.334;2023-08-06T14:53:55;21.50;99.90
27633;DHT22;15046;50.930;13.334;2023-08-06T14:56:21;21.50;99.90
27633;DHT22;15046;50.930;13.334;2023-08-06T14:58:47;21.40;99.90
27633;DHT22;15046;50.930;13.334;2023-08-06T15:01:13;21.20;99.70
27633;DHT22;15046;50.930;13.334;2023-08-06T15:03:39;21.10;99.40
27633;DHT22;15046;50.930;13.334;2023-08-06T15:06:05;21.00;99.30
27633;DHT22;15046;50.930;13.334;2023-08-06T15:08:31;21.00;99.20
27633;DHT22;15046;50.930;13.334;2023-08-06T15:10:56;20.70;99.80
27633;DHT22;15046;50.930;13.334;2023-08-06T15:13:22;20.30;99.90
27633;DHT22;15046;50.930;13.334;2023-08-06T15:15:49;20.10;99.90
27633;DHT22;15046;50.930;13.334;2023-08-06T15:18:15;20.20;99.90